Amory, Mississippi
Current Conditions -  °F | °C
As of 3:55 AM on Tuesday 21 Oct 2014 (Local Time) from KM40 Reporting Station
Haze Haze  
Wind Chill: 46°   Ceiling: Unl
Heat Index: 46°   Visibility: 3mi
Dew Point: 32°   Wind: 0mph
Humidity: 57%   Direction: NA
Pressure: 30.05"   Gusts: NA
Location:  33.99°N, 88.49°W
Report Text: KM40 210855Z AUTO 00000KT 3SM HZ FEW001 08/00 A3005 RMK AO2
Loading
Personal Weather Stations






























Interactive Weather Map
Tropical Storm Tracking
New forecast layout! Learn more

10-Day Weather Forecast

Advertisements
Track Severe Weather on mobile